Meteo Giornale » Osservazioni meteo Italia » Lecce

ore: 00:55 - Osservazioni Meteo Lecce
Lat. 40° 14' N Lon. 18° 9' E Alt. 48 metri s.l.m.

sereno Europe/Rome

20 °C

Sereno

Temp. 24 Ore

19 °C

27 °C

Nord

3.7 Km/h

Dew point 19 °C

Umidità 93 %

Visibilità  10 Km

Il sole sorge alle ore 05:49

Il sole tramonta alle ore 19:56

Data e Ora Cielo e Fenomeni T °C DP °C Um. % Pres. hPa Vis. km Vento km/h
Oggi h: 00:55 sereno Sereno 20 19 93 1012 10 N 3.7
Ieri h: 23:55 sereno Sereno 20 19 93 1012 10 N 3.7
Ieri h: 22:55 poco_nuvoloso Poco Nuvoloso 20 19 93 1012 10 O 7.4
Ieri h: 21:55 poco_nuvoloso Poco Nuvoloso 21 20 94 1012 10 O/NO 9.3
Ieri h: 20:55 poco_nuvoloso Poco Nuvoloso 21 20 94 1012 10 NO 7.4
Ieri h: 19:55 poco_nuvoloso Poco Nuvoloso 22 21 94 1011 10 NO 9.3
Ieri h: 18:55 poco_nuvoloso Poco Nuvoloso 24 21 83 1011 10 N/NO 20.3
Ieri h: 17:55 poco_nuvoloso Poco Nuvoloso 24 21 83 1011 10 N 16.7
Ieri h: 16:55 coperto_pioggia Pioggia Debole 23 21 88 1010 8 N 16.7
Ieri h: 15:55 nuvoloso Nuvoloso 24 20 78 1011 10 N/NE 14.8
Ieri h: 15:22 nuvoloso Nuvoloso 23 21 88 1011 8 NE 9.3
Ieri h: 14:55 coperto_temporali Temporale 22 20 88 1011 6 N/NE 16.7
Ieri h: 13:55 nuvoloso_temporali Temporale con Pioggia Debole 25 20 73 1010 4 O/NO 22.2
Ieri h: 12:55 nuvoloso Nuvoloso 27 22 74 1010 10 NO 16.7
Ieri h: 11:55 nuvoloso Nuvoloso 25 21 78 1010 10 N 22.2
Ieri h: 10:55 poco_nuvoloso Poco Nuvoloso 24 20 78 1010 10 NO 18.5
Ieri h: 09:55 poco_nuvoloso Poco Nuvoloso 23 20 83 1010 10 N/NO 16.7
Ieri h: 08:55 poco_nuvoloso Poco Nuvoloso 21 20 94 1009 10 NO 18.5
Ieri h: 07:55 poco_nuvoloso Poco Nuvoloso 20 19 93 1009 10 N/NO 16.7
Ieri h: 06:55 coperto_pioggia Pioggia Debole 20 20 100 1009 10 N/NO 16.7
Ieri h: 05:55 coperto_pioggia Pioggia Debole 20 20 100 1009 10 N/NO 13
Ieri h: 04:55 nuvoloso Nuvoloso 20 19 93 1009 10 NO 11.1
Ieri h: 03:55 poco_nuvoloso Poco Nuvoloso 20 19 93 1009 10 NO 9.3
Ieri h: 02:55 poco_nuvoloso Poco Nuvoloso 19 19 100 1009 10 N/NO 9.3